sensor_id;sensor_type;location;lat;lon;timestamp;P1;durP1;ratioP1;P2;durP2;ratioP2
58244;SDS011;44550;43.864;25.986;2023-08-08T00:00:02;2.55;;;2.05;;
58244;SDS011;44550;43.864;25.986;2023-08-08T00:04:04;1.85;;;1.65;;
58244;SDS011;44550;43.864;25.986;2023-08-08T00:08:04;2.42;;;2.10;;
58244;SDS011;44550;43.864;25.986;2023-08-08T00:12:04;1.95;;;1.42;;
58244;SDS011;44550;43.864;25.986;2023-08-08T00:16:04;2.78;;;2.13;;
58244;SDS011;44550;43.864;25.986;2023-08-08T00:20:07;3.08;;;2.22;;
58244;SDS011;44550;43.864;25.986;2023-08-08T00:24:07;7.53;;;2.80;;
58244;SDS011;44550;43.864;25.986;2023-08-08T00:28:07;2.88;;;2.38;;
58244;SDS011;44550;43.864;25.986;2023-08-08T00:32:07;4.40;;;2.90;;
58244;SDS011;44550;43.864;25.986;2023-08-08T00:36:09;3.60;;;2.10;;
58244;SDS011;44550;43.864;25.986;2023-08-08T00:40:09;2.83;;;2.10;;
58244;SDS011;44550;43.864;25.986;2023-08-08T00:44:09;2.05;;;1.88;;
58244;SDS011;44550;43.864;25.986;2023-08-08T00:48:10;3.97;;;2.22;;
58244;SDS011;44550;43.864;25.986;2023-08-08T00:52:13;1.60;;;1.50;;
58244;SDS011;44550;43.864;25.986;2023-08-08T00:56:13;2.58;;;1.92;;
58244;SDS011;44550;43.864;25.986;2023-08-08T01:00:13;1.85;;;1.73;;
58244;SDS011;44550;43.864;25.986;2023-08-08T01:04:13;2.83;;;2.63;;
58244;SDS011;44550;43.864;25.986;2023-08-08T01:08:16;2.08;;;1.90;;
58244;SDS011;44550;43.864;25.986;2023-08-08T01:12:21;3.28;;;2.40;;
58244;SDS011;44550;43.864;25.986;2023-08-08T01:20:36;2.58;;;2.00;;
58244;SDS011;44550;43.864;25.986;2023-08-08T01:25:08;3.60;;;2.00;;
58244;SDS011;44550;43.864;25.986;2023-08-08T01:29:14;2.70;;;1.85;;
58244;SDS011;44550;43.864;25.986;2023-08-08T01:33:33;2.33;;;1.65;;
58244;SDS011;44550;43.864;25.986;2023-08-08T01:37:41;2.15;;;2.05;;
58244;SDS011;44550;43.864;25.986;2023-08-08T01:41:55;1.70;;;1.60;;
58244;SDS011;44550;43.864;25.986;2023-08-08T01:46:03;2.58;;;1.85;;
58244;SDS011;44550;43.864;25.986;2023-08-08T01:50:18;2.15;;;1.95;;
58244;SDS011;44550;43.864;25.986;2023-08-08T01:54:18;1.95;;;1.83;;
58244;SDS011;44550;43.864;25.986;2023-08-08T01:58:21;2.35;;;2.00;;
58244;SDS011;44550;43.864;25.986;2023-08-08T02:02:23;2.20;;;2.10;;
58244;SDS011;44550;43.864;25.986;2023-08-08T02:06:30;6.10;;;2.28;;
58244;SDS011;44550;43.864;25.986;2023-08-08T02:10:45;2.10;;;2.00;;
58244;SDS011;44550;43.864;25.986;2023-08-08T02:15:16;3.80;;;2.13;;
58244;SDS011;44550;43.864;25.986;2023-08-08T02:19:24;3.03;;;2.47;;
58244;SDS011;44550;43.864;25.986;2023-08-08T02:23:37;2.50;;;1.95;;
58244;SDS011;44550;43.864;25.986;2023-08-08T02:27:46;2.35;;;2.15;;
58244;SDS011;44550;43.864;25.986;2023-08-08T02:31:48;7.55;;;2.67;;
58244;SDS011;44550;43.864;25.986;2023-08-08T02:35:59;2.83;;;2.60;;
58244;SDS011;44550;43.864;25.986;2023-08-08T02:40:08;3.50;;;2.60;;
58244;SDS011;44550;43.864;25.986;2023-08-08T02:44:10;3.28;;;2.72;;
58244;SDS011;44550;43.864;25.986;2023-08-08T02:48:37;3.05;;;2.63;;
58244;SDS011;44550;43.864;25.986;2023-08-08T02:52:46;4.53;;;2.47;;
58244;SDS011;44550;43.864;25.986;2023-08-08T02:56:54;3.00;;;2.80;;
58244;SDS011;44550;43.864;25.986;2023-08-08T03:00:55;4.55;;;3.30;;
58244;SDS011;44550;43.864;25.986;2023-08-08T03:05:06;2.75;;;2.55;;
58244;SDS011;44550;43.864;25.986;2023-08-08T03:09:22;3.35;;;2.92;;
58244;SDS011;44550;43.864;25.986;2023-08-08T03:13:51;2.65;;;2.45;;
58244;SDS011;44550;43.864;25.986;2023-08-08T03:18:03;2.60;;;2.40;;
58244;SDS011;44550;43.864;25.986;2023-08-08T03:22:07;3.00;;;2.80;;
58244;SDS011;44550;43.864;25.986;2023-08-08T03:26:22;4.65;;;2.30;;
58244;SDS011;44550;43.864;25.986;2023-08-08T03:30:42;2.75;;;2.55;;
58244;SDS011;44550;43.864;25.986;2023-08-08T03:34:58;2.75;;;2.60;;
58244;SDS011;44550;43.864;25.986;2023-08-08T03:39:04;4.88;;;3.50;;
58244;SDS011;44550;43.864;25.986;2023-08-08T03:43:05;3.72;;;2.80;;
58244;SDS011;44550;43.864;25.986;2023-08-08T03:47:28;3.75;;;2.53;;
58244;SDS011;44550;43.864;25.986;2023-08-08T03:51:38;2.53;;;2.40;;
58244;SDS011;44550;43.864;25.986;2023-08-08T03:55:53;3.17;;;2.80;;
58244;SDS011;44550;43.864;25.986;2023-08-08T03:59:53;3.38;;;2.45;;
58244;SDS011;44550;43.864;25.986;2023-08-08T04:03:53;3.55;;;2.40;;
58244;SDS011;44550;43.864;25.986;2023-08-08T04:08:12;2.88;;;2.58;;
58244;SDS011;44550;43.864;25.986;2023-08-08T04:12:13;3.00;;;2.70;;
58244;SDS011;44550;43.864;25.986;2023-08-08T04:16:15;2.97;;;2.78;;
58244;SDS011;44550;43.864;25.986;2023-08-08T04:24:55;5.85;;;2.75;;
58244;SDS011;44550;43.864;25.986;2023-08-08T04:33:31;6.95;;;2.65;;
58244;SDS011;44550;43.864;25.986;2023-08-08T04:37:52;3.30;;;3.03;;
58244;SDS011;44550;43.864;25.986;2023-08-08T04:42:01;5.43;;;3.15;;
58244;SDS011;44550;43.864;25.986;2023-08-08T04:46:21;3.38;;;3.08;;
58244;SDS011;44550;43.864;25.986;2023-08-08T04:50:48;4.75;;;2.95;;
58244;SDS011;44550;43.864;25.986;2023-08-08T04:55:20;3.73;;;3.17;;
58244;SDS011;44550;43.864;25.986;2023-08-08T04:59:23;3.70;;;3.20;;
58244;SDS011;44550;43.864;25.986;2023-08-08T05:03:36;3.75;;;3.28;;
58244;SDS011;44550;43.864;25.986;2023-08-08T05:07:38;3.75;;;3.45;;
58244;SDS011;44550;43.864;25.986;2023-08-08T05:11:54;3.38;;;3.08;;
58244;SDS011;44550;43.864;25.986;2023-08-08T05:25:30;4.28;;;3.30;;
58244;SDS011;44550;43.864;25.986;2023-08-08T05:30:32;4.32;;;3.70;;
58244;SDS011;44550;43.864;25.986;2023-08-08T05:46:01;4.22;;;3.25;;
58244;SDS011;44550;43.864;25.986;2023-08-08T05:50:51;4.45;;;4.07;;
58244;SDS011;44550;43.864;25.986;2023-08-08T05:55:02;4.30;;;3.03;;
58244;SDS011;44550;43.864;25.986;2023-08-08T05:59:11;3.67;;;3.38;;
58244;SDS011;44550;43.864;25.986;2023-08-08T06:03:30;3.78;;;3.42;;
58244;SDS011;44550;43.864;25.986;2023-08-08T06:07:49;8.10;;;4.05;;
58244;SDS011;44550;43.864;25.986;2023-08-08T06:17:35;3.47;;;3.17;;
58244;SDS011;44550;43.864;25.986;2023-08-08T06:28:00;4.45;;;4.05;;
58244;SDS011;44550;43.864;25.986;2023-08-08T06:37:58;6.03;;;4.35;;
58244;SDS011;44550;43.864;25.986;2023-08-08T06:42:02;4.55;;;4.07;;
58244;SDS011;44550;43.864;25.986;2023-08-08T06:46:08;8.65;;;4.57;;
58244;SDS011;44550;43.864;25.986;2023-08-08T06:51:03;4.00;;;3.70;;
58244;SDS011;44550;43.864;25.986;2023-08-08T07:06:51;4.85;;;4.35;;
58244;SDS011;44550;43.864;25.986;2023-08-08T07:10:51;4.25;;;3.85;;
58244;SDS011;44550;43.864;25.986;2023-08-08T07:14:55;4.18;;;3.85;;
58244;SDS011;44550;43.864;25.986;2023-08-08T07:18:55;3.65;;;3.35;;
58244;SDS011;44550;43.864;25.986;2023-08-08T07:22:57;4.90;;;3.80;;
58244;SDS011;44550;43.864;25.986;2023-08-08T07:26:58;3.38;;;3.08;;
58244;SDS011;44550;43.864;25.986;2023-08-08T07:31:16;3.65;;;3.35;;
58244;SDS011;44550;43.864;25.986;2023-08-08T07:35:16;3.53;;;3.20;;
58244;SDS011;44550;43.864;25.986;2023-08-08T07:39:19;4.90;;;3.80;;
58244;SDS011;44550;43.864;25.986;2023-08-08T07:43:19;6.80;;;3.78;;
58244;SDS011;44550;43.864;25.986;2023-08-08T07:47:19;4.20;;;3.55;;
58244;SDS011;44550;43.864;25.986;2023-08-08T07:51:20;3.63;;;3.35;;
58244;SDS011;44550;43.864;25.986;2023-08-08T07:55:22;3.33;;;3.13;;
58244;SDS011;44550;43.864;25.986;2023-08-08T07:59:22;2.78;;;2.58;;
58244;SDS011;44550;43.864;25.986;2023-08-08T08:03:22;3.50;;;2.58;;
58244;SDS011;44550;43.864;25.986;2023-08-08T08:07:22;4.30;;;2.88;;
58244;SDS011;44550;43.864;25.986;2023-08-08T08:11:24;3.25;;;3.00;;
58244;SDS011;44550;43.864;25.986;2023-08-08T08:15:25;3.47;;;2.70;;
58244;SDS011;44550;43.864;25.986;2023-08-08T08:19:25;2.58;;;2.40;;
58244;SDS011;44550;43.864;25.986;2023-08-08T08:23:25;3.40;;;2.45;;
58244;SDS011;44550;43.864;25.986;2023-08-08T08:27:31;4.85;;;3.00;;
58244;SDS011;44550;43.864;25.986;2023-08-08T08:31:32;3.88;;;3.08;;
58244;SDS011;44550;43.864;25.986;2023-08-08T08:35:33;5.82;;;2.92;;
58244;SDS011;44550;43.864;25.986;2023-08-08T08:39:34;4.20;;;3.00;;
58244;SDS011;44550;43.864;25.986;2023-08-08T08:43:37;2.67;;;2.40;;
58244;SDS011;44550;43.864;25.986;2023-08-08T08:47:40;3.60;;;2.55;;
58244;SDS011;44550;43.864;25.986;2023-08-08T08:51:46;4.72;;;2.33;;
58244;SDS011;44550;43.864;25.986;2023-08-08T08:55:47;4.03;;;2.28;;
58244;SDS011;44550;43.864;25.986;2023-08-08T08:59:49;2.45;;;2.22;;
58244;SDS011;44550;43.864;25.986;2023-08-08T09:03:49;2.65;;;2.30;;
58244;SDS011;44550;43.864;25.986;2023-08-08T09:07:50;2.67;;;2.00;;
58244;SDS011;44550;43.864;25.986;2023-08-08T09:11:51;5.43;;;2.10;;
58244;SDS011;44550;43.864;25.986;2023-08-08T09:15:55;2.55;;;1.98;;
58244;SDS011;44550;43.864;25.986;2023-08-08T09:19:56;2.70;;;2.38;;
58244;SDS011;44550;43.864;25.986;2023-08-08T09:23:57;3.97;;;2.22;;
58244;SDS011;44550;43.864;25.986;2023-08-08T09:27:57;2.97;;;2.58;;
58244;SDS011;44550;43.864;25.986;2023-08-08T09:31:59;2.03;;;1.67;;
58244;SDS011;44550;43.864;25.986;2023-08-08T09:36:02;4.00;;;2.30;;
58244;SDS011;44550;43.864;25.986;2023-08-08T09:40:03;2.10;;;1.90;;
58244;SDS011;44550;43.864;25.986;2023-08-08T09:44:05;3.08;;;1.88;;
58244;SDS011;44550;43.864;25.986;2023-08-08T09:48:09;2.60;;;1.90;;
58244;SDS011;44550;43.864;25.986;2023-08-08T09:52:09;2.08;;;1.80;;
58244;SDS011;44550;43.864;25.986;2023-08-08T09:56:10;1.88;;;1.70;;
58244;SDS011;44550;43.864;25.986;2023-08-08T10:00:12;2.42;;;1.27;;
58244;SDS011;44550;43.864;25.986;2023-08-08T10:04:20;1.83;;;1.67;;
58244;SDS011;44550;43.864;25.986;2023-08-08T10:08:21;1.30;;;1.20;;
58244;SDS011;44550;43.864;25.986;2023-08-08T10:12:21;1.60;;;1.30;;
58244;SDS011;44550;43.864;25.986;2023-08-08T10:16:22;3.20;;;1.75;;
58244;SDS011;44550;43.864;25.986;2023-08-08T10:20:27;1.80;;;1.67;;
58244;SDS011;44550;43.864;25.986;2023-08-08T10:24:32;2.50;;;2.30;;
58244;SDS011;44550;43.864;25.986;2023-08-08T10:28:33;10.07;;;2.42;;
58244;SDS011;44550;43.864;25.986;2023-08-08T10:32:40;2.20;;;1.27;;
58244;SDS011;44550;43.864;25.986;2023-08-08T10:36:47;3.35;;;1.95;;
58244;SDS011;44550;43.864;25.986;2023-08-08T10:40:53;1.98;;;1.73;;
58244;SDS011;44550;43.864;25.986;2023-08-08T10:44:56;1.55;;;1.45;;
58244;SDS011;44550;43.864;25.986;2023-08-08T10:48:57;1.30;;;1.20;;
58244;SDS011;44550;43.864;25.986;2023-08-08T10:53:01;1.88;;;1.45;;
58244;SDS011;44550;43.864;25.986;2023-08-08T10:57:03;3.58;;;0.88;;
58244;SDS011;44550;43.864;25.986;2023-08-08T11:01:16;8.23;;;1.58;;
58244;SDS011;44550;43.864;25.986;2023-08-08T11:05:16;1.15;;;1.13;;
58244;SDS011;44550;43.864;25.986;2023-08-08T11:09:19;2.65;;;1.30;;
58244;SDS011;44550;43.864;25.986;2023-08-08T11:13:20;1.52;;;0.80;;
58244;SDS011;44550;43.864;25.986;2023-08-08T11:17:20;0.85;;;0.80;;
58244;SDS011;44550;43.864;25.986;2023-08-08T11:21:20;5.97;;;1.42;;
58244;SDS011;44550;43.864;25.986;2023-08-08T11:25:25;1.50;;;0.70;;
58244;SDS011;44550;43.864;25.986;2023-08-08T11:29:26;1.27;;;1.00;;
58244;SDS011;44550;43.864;25.986;2023-08-08T11:33:27;2.22;;;0.75;;
58244;SDS011;44550;43.864;25.986;2023-08-08T11:37:27;1.05;;;0.60;;
58244;SDS011;44550;43.864;25.986;2023-08-08T11:41:29;2.55;;;0.70;;
58244;SDS011;44550;43.864;25.986;2023-08-08T11:45:31;1.55;;;0.93;;
58244;SDS011;44550;43.864;25.986;2023-08-08T11:49:40;2.47;;;0.80;;
58244;SDS011;44550;43.864;25.986;2023-08-08T11:53:47;1.15;;;0.70;;
58244;SDS011;44550;43.864;25.986;2023-08-08T11:57:51;0.60;;;0.60;;
58244;SDS011;44550;43.864;25.986;2023-08-08T12:02:02;1.75;;;0.63;;
58244;SDS011;44550;43.864;25.986;2023-08-08T12:06:02;2.47;;;0.98;;
58244;SDS011;44550;43.864;25.986;2023-08-08T12:10:14;1.77;;;0.75;;
58244;SDS011;44550;43.864;25.986;2023-08-08T12:14:18;4.43;;;1.20;;
58244;SDS011;44550;43.864;25.986;2023-08-08T12:18:19;2.38;;;0.93;;
58244;SDS011;44550;43.864;25.986;2023-08-08T12:22:21;1.23;;;1.10;;
58244;SDS011;44550;43.864;25.986;2023-08-08T12:26:21;4.68;;;0.90;;
58244;SDS011;44550;43.864;25.986;2023-08-08T12:30:24;3.50;;;1.67;;
58244;SDS011;44550;43.864;25.986;2023-08-08T12:34:23;4.95;;;2.13;;
58244;SDS011;44550;43.864;25.986;2023-08-08T12:38:23;2.20;;;1.98;;
58244;SDS011;44550;43.864;25.986;2023-08-08T12:42:23;3.28;;;2.97;;
58244;SDS011;44550;43.864;25.986;2023-08-08T12:46:25;9.30;;;3.25;;
58244;SDS011;44550;43.864;25.986;2023-08-08T12:50:26;8.40;;;3.17;;
58244;SDS011;44550;43.864;25.986;2023-08-08T12:54:25;5.57;;;3.10;;
58244;SDS011;44550;43.864;25.986;2023-08-08T12:58:25;7.00;;;3.75;;
58244;SDS011;44550;43.864;25.986;2023-08-08T13:02:27;6.88;;;3.22;;
58244;SDS011;44550;43.864;25.986;2023-08-08T13:06:27;8.45;;;4.60;;
58244;SDS011;44550;43.864;25.986;2023-08-08T13:10:28;5.70;;;3.67;;
58244;SDS011;44550;43.864;25.986;2023-08-08T13:14:28;9.90;;;2.95;;
58244;SDS011;44550;43.864;25.986;2023-08-08T13:18:30;2.55;;;2.30;;
58244;SDS011;44550;43.864;25.986;2023-08-08T13:22:32;5.00;;;2.63;;
58244;SDS011;44550;43.864;25.986;2023-08-08T13:26:35;5.88;;;2.60;;
58244;SDS011;44550;43.864;25.986;2023-08-08T13:30:40;2.10;;;1.92;;
58244;SDS011;44550;43.864;25.986;2023-08-08T13:39:25;3.58;;;2.30;;
58244;SDS011;44550;43.864;25.986;2023-08-08T13:43:35;3.35;;;1.98;;
58244;SDS011;44550;43.864;25.986;2023-08-08T13:47:44;3.03;;;1.63;;
58244;SDS011;44550;43.864;25.986;2023-08-08T13:56:35;3.55;;;1.65;;
58244;SDS011;44550;43.864;25.986;2023-08-08T14:24:35;2.72;;;1.83;;
58244;SDS011;44550;43.864;25.986;2023-08-08T14:28:37;2.55;;;1.45;;
58244;SDS011;44550;43.864;25.986;2023-08-08T14:32:40;1.75;;;1.15;;
58244;SDS011;44550;43.864;25.986;2023-08-08T14:36:41;1.80;;;1.70;;
58244;SDS011;44550;43.864;25.986;2023-08-08T14:40:47;3.03;;;1.33;;
58244;SDS011;44550;43.864;25.986;2023-08-08T14:44:47;1.23;;;1.23;;
58244;SDS011;44550;43.864;25.986;2023-08-08T14:49:10;6.60;;;1.80;;
58244;SDS011;44550;43.864;25.986;2023-08-08T14:53:18;6.45;;;2.08;;
58244;SDS011;44550;43.864;25.986;2023-08-08T14:57:22;3.40;;;1.70;;
58244;SDS011;44550;43.864;25.986;2023-08-08T15:01:23;1.70;;;1.60;;
58244;SDS011;44550;43.864;25.986;2023-08-08T15:05:25;5.65;;;1.92;;
58244;SDS011;44550;43.864;25.986;2023-08-08T15:09:26;2.08;;;1.88;;
58244;SDS011;44550;43.864;25.986;2023-08-08T15:13:30;1.88;;;1.20;;
58244;SDS011;44550;43.864;25.986;2023-08-08T15:17:32;3.58;;;1.55;;
58244;SDS011;44550;43.864;25.986;2023-08-08T15:21:32;4.45;;;1.40;;
58244;SDS011;44550;43.864;25.986;2023-08-08T15:25:33;4.15;;;1.35;;
58244;SDS011;44550;43.864;25.986;2023-08-08T15:29:44;4.15;;;1.65;;
58244;SDS011;44550;43.864;25.986;2023-08-08T15:33:45;1.58;;;1.23;;
58244;SDS011;44550;43.864;25.986;2023-08-08T15:37:47;1.52;;;1.40;;
58244;SDS011;44550;43.864;25.986;2023-08-08T15:46:08;2.75;;;2.05;;
58244;SDS011;44550;43.864;25.986;2023-08-08T15:50:10;1.35;;;1.15;;
58244;SDS011;44550;43.864;25.986;2023-08-08T15:54:11;2.30;;;1.17;;
58244;SDS011;44550;43.864;25.986;2023-08-08T15:58:24;2.78;;;1.25;;
58244;SDS011;44550;43.864;25.986;2023-08-08T16:02:26;1.55;;;1.40;;
58244;SDS011;44550;43.864;25.986;2023-08-08T16:06:30;2.72;;;1.40;;
58244;SDS011;44550;43.864;25.986;2023-08-08T16:10:30;3.25;;;1.10;;
58244;SDS011;44550;43.864;25.986;2023-08-08T16:14:31;7.30;;;1.80;;
58244;SDS011;44550;43.864;25.986;2023-08-08T16:18:34;2.42;;;1.17;;
58244;SDS011;44550;43.864;25.986;2023-08-08T16:22:34;2.20;;;1.10;;
58244;SDS011;44550;43.864;25.986;2023-08-08T16:26:34;14.00;;;2.70;;
58244;SDS011;44550;43.864;25.986;2023-08-08T16:30:34;31.08;;;4.60;;
58244;SDS011;44550;43.864;25.986;2023-08-08T16:34:37;4.18;;;1.58;;
58244;SDS011;44550;43.864;25.986;2023-08-08T16:38:40;28.17;;;3.22;;
58244;SDS011;44550;43.864;25.986;2023-08-08T16:42:41;9.10;;;1.98;;
